sensor_id;sensor_type;location;lat;lon;timestamp;pressure;altitude;pressure_sealevel;temperature;humidity
81155;BME280;70631;50.436;7.826;2023-09-07T00:00:19;99558.97;;;16.77;71.57
81155;BME280;70631;50.436;7.826;2023-09-07T00:02:45;99554.78;;;16.75;71.90
81155;BME280;70631;50.436;7.826;2023-09-07T00:05:11;99552.44;;;16.72;71.78
81155;BME280;70631;50.436;7.826;2023-09-07T00:07:38;99559.16;;;16.68;71.80
81155;BME280;70631;50.436;7.826;2023-09-07T00:10:04;99556.13;;;16.63;72.16
81155;BME280;70631;50.436;7.826;2023-09-07T00:12:29;99555.63;;;16.59;72.15
81155;BME280;70631;50.436;7.826;2023-09-07T00:14:55;99547.25;;;16.54;72.10
81155;BME280;70631;50.436;7.826;2023-09-07T00:17:22;99551.97;;;16.52;72.28
81155;BME280;70631;50.436;7.826;2023-09-07T00:19:47;99553.16;;;16.49;72.31
81155;BME280;70631;50.436;7.826;2023-09-07T00:22:14;99557.00;;;16.47;72.30
81155;BME280;70631;50.436;7.826;2023-09-07T00:24:40;99551.97;;;16.44;72.34
81155;BME280;70631;50.436;7.826;2023-09-07T00:27:05;99542.38;;;16.41;72.34
81155;BME280;70631;50.436;7.826;2023-09-07T00:29:32;99543.56;;;16.39;72.63
81155;BME280;70631;50.436;7.826;2023-09-07T00:31:58;99544.75;;;16.36;72.22
81155;BME280;70631;50.436;7.826;2023-09-07T00:34:23;99546.13;;;16.32;72.57
81155;BME280;70631;50.436;7.826;2023-09-07T00:36:48;99547.47;;;16.28;72.68
81155;BME280;70631;50.436;7.826;2023-09-07T00:39:13;99548.31;;;16.29;72.76
81155;BME280;70631;50.436;7.826;2023-09-07T00:41:39;99547.66;;;16.27;72.47
81155;BME280;70631;50.436;7.826;2023-09-07T00:44:04;99545.94;;;16.26;72.67
81155;BME280;70631;50.436;7.826;2023-09-07T00:46:29;99545.09;;;16.25;72.87
81155;BME280;70631;50.436;7.826;2023-09-07T00:48:55;99546.28;;;16.23;72.67
81155;BME280;70631;50.436;7.826;2023-09-07T00:51:22;99543.94;;;16.19;72.76
81155;BME280;70631;50.436;7.826;2023-09-07T00:53:48;99532.72;;;16.16;72.65
81155;BME280;70631;50.436;7.826;2023-09-07T00:56:14;99540.94;;;16.14;73.00
81155;BME280;70631;50.436;7.826;2023-09-07T00:58:39;99536.75;;;16.12;72.67
81155;BME280;70631;50.436;7.826;2023-09-07T01:01:04;99529.88;;;16.09;72.90
81155;BME280;70631;50.436;7.826;2023-09-07T01:03:30;99524.84;;;16.06;72.96
81155;BME280;70631;50.436;7.826;2023-09-07T01:06:02;99524.50;;;16.01;72.87
81155;BME280;70631;50.436;7.826;2023-09-07T01:08:49;99521.81;;;15.93;72.86
81155;BME280;70631;50.436;7.826;2023-09-07T01:11:18;99520.63;;;15.96;72.83
81155;BME280;70631;50.436;7.826;2023-09-07T01:13:45;99515.59;;;15.93;72.93
81155;BME280;70631;50.436;7.826;2023-09-07T01:16:12;99514.94;;;15.91;73.00
81155;BME280;70631;50.436;7.826;2023-09-07T01:18:38;99518.81;;;15.88;73.16
81155;BME280;70631;50.436;7.826;2023-09-07T01:21:07;99516.63;;;15.83;73.10
81155;BME280;70631;50.436;7.826;2023-09-07T01:23:35;99514.25;;;15.80;72.91
81155;BME280;70631;50.436;7.826;2023-09-07T01:26:01;99510.75;;;15.80;73.34
81155;BME280;70631;50.436;7.826;2023-09-07T01:28:27;99516.44;;;15.77;73.20
81155;BME280;70631;50.436;7.826;2023-09-07T01:30:52;99511.59;;;15.72;73.45
81155;BME280;70631;50.436;7.826;2023-09-07T01:33:17;99520.00;;;15.69;73.59
81155;BME280;70631;50.436;7.826;2023-09-07T01:35:43;99505.88;;;15.67;73.19
81155;BME280;70631;50.436;7.826;2023-09-07T01:38:09;99509.59;;;15.66;73.00
81155;BME280;70631;50.436;7.826;2023-09-07T01:40:34;99506.22;;;15.64;73.46
81155;BME280;70631;50.436;7.826;2023-09-07T01:43:00;99502.19;;;15.60;73.25
81155;BME280;70631;50.436;7.826;2023-09-07T01:45:26;99503.66;;;15.54;73.60
81155;BME280;70631;50.436;7.826;2023-09-07T01:47:51;99502.00;;;15.53;73.92
81155;BME280;70631;50.436;7.826;2023-09-07T01:50:18;99503.84;;;15.53;73.87
81155;BME280;70631;50.436;7.826;2023-09-07T01:52:46;99498.81;;;15.50;73.65
81155;BME280;70631;50.436;7.826;2023-09-07T01:55:11;99512.41;;;15.48;73.60
81155;BME280;70631;50.436;7.826;2023-09-07T01:57:37;99511.91;;;15.45;73.76
81155;BME280;70631;50.436;7.826;2023-09-07T02:00:02;99506.88;;;15.42;73.74
81155;BME280;70631;50.436;7.826;2023-09-07T02:02:29;99516.91;;;15.40;73.99
81155;BME280;70631;50.436;7.826;2023-09-07T02:04:55;99507.50;;;15.36;74.08
81155;BME280;70631;50.436;7.826;2023-09-07T02:07:20;99512.22;;;15.34;73.86
81155;BME280;70631;50.436;7.826;2023-09-07T02:09:45;99505.50;;;15.29;73.97
81155;BME280;70631;50.436;7.826;2023-09-07T02:12:10;99505.00;;;15.26;73.60
81155;BME280;70631;50.436;7.826;2023-09-07T02:14:36;99504.50;;;15.22;73.45
81155;BME280;70631;50.436;7.826;2023-09-07T02:17:01;99498.63;;;15.19;74.30
81155;BME280;70631;50.436;7.826;2023-09-07T02:19:27;99504.97;;;15.18;74.10
81155;BME280;70631;50.436;7.826;2023-09-07T02:21:52;99506.13;;;15.15;73.97
81155;BME280;70631;50.436;7.826;2023-09-07T02:24:18;99498.59;;;15.11;74.16
81155;BME280;70631;50.436;7.826;2023-09-07T02:26:43;99499.94;;;15.07;74.53
81155;BME280;70631;50.436;7.826;2023-09-07T02:29:11;99500.09;;;15.05;73.96
81155;BME280;70631;50.436;7.826;2023-09-07T02:31:37;99499.59;;;15.02;74.10
81155;BME280;70631;50.436;7.826;2023-09-07T02:34:02;99501.75;;;14.98;74.05
81155;BME280;70631;50.436;7.826;2023-09-07T02:36:28;99504.63;;;14.96;73.95
81155;BME280;70631;50.436;7.826;2023-09-07T02:38:54;99501.38;;;14.93;74.44
81155;BME280;70631;50.436;7.826;2023-09-07T02:41:19;99499.03;;;14.90;74.50
81155;BME280;70631;50.436;7.826;2023-09-07T02:43:44;99496.53;;;14.88;74.24
81155;BME280;70631;50.436;7.826;2023-09-07T02:46:09;99510.94;;;14.87;74.84
81155;BME280;70631;50.436;7.826;2023-09-07T02:48:35;99508.41;;;14.86;74.01
81155;BME280;70631;50.436;7.826;2023-09-07T02:51:00;99505.22;;;14.82;74.69
81155;BME280;70631;50.436;7.826;2023-09-07T02:53:25;99499.03;;;14.82;74.34
81155;BME280;70631;50.436;7.826;2023-09-07T02:55:51;99503.03;;;14.78;74.74
81155;BME280;70631;50.436;7.826;2023-09-07T02:58:16;99502.50;;;14.74;74.64
81155;BME280;70631;50.436;7.826;2023-09-07T03:00:45;99500.31;;;14.70;74.58
81155;BME280;70631;50.436;7.826;2023-09-07T03:03:13;99504.00;;;14.68;74.36
81155;BME280;70631;50.436;7.826;2023-09-07T03:05:43;99506.00;;;14.66;74.19
81155;BME280;70631;50.436;7.826;2023-09-07T03:08:08;99505.16;;;14.66;74.26
81155;BME280;70631;50.436;7.826;2023-09-07T03:10:37;99508.34;;;14.61;74.45
81155;BME280;70631;50.436;7.826;2023-09-07T03:13:05;99501.28;;;14.60;74.72
81155;BME280;70631;50.436;7.826;2023-09-07T03:15:30;99507.00;;;14.57;74.73
81155;BME280;70631;50.436;7.826;2023-09-07T03:17:55;99500.28;;;14.53;74.33
81155;BME280;70631;50.436;7.826;2023-09-07T03:20:21;99501.41;;;14.51;74.55
81155;BME280;70631;50.436;7.826;2023-09-07T03:22:46;99498.88;;;14.49;74.53
81155;BME280;70631;50.436;7.826;2023-09-07T03:25:12;99500.72;;;14.49;74.51
81155;BME280;70631;50.436;7.826;2023-09-07T03:27:38;99507.09;;;14.48;74.81
81155;BME280;70631;50.436;7.826;2023-09-07T03:30:04;99503.91;;;14.44;74.59
81155;BME280;70631;50.436;7.826;2023-09-07T03:32:31;99509.38;;;14.43;74.40
81155;BME280;70631;50.436;7.826;2023-09-07T03:35:02;99506.88;;;14.41;74.48
81155;BME280;70631;50.436;7.826;2023-09-07T03:37:28;99502.84;;;14.37;74.70
81155;BME280;70631;50.436;7.826;2023-09-07T03:39:55;99503.16;;;14.34;75.03
81155;BME280;70631;50.436;7.826;2023-09-07T03:42:20;99506.00;;;14.32;74.77
81155;BME280;70631;50.436;7.826;2023-09-07T03:44:45;99504.47;;;14.30;74.62
81155;BME280;70631;50.436;7.826;2023-09-07T03:47:13;99497.75;;;14.26;74.82
81155;BME280;70631;50.436;7.826;2023-09-07T03:49:38;99504.09;;;14.25;75.05
81155;BME280;70631;50.436;7.826;2023-09-07T03:52:04;99505.09;;;14.24;74.96
81155;BME280;70631;50.436;7.826;2023-09-07T03:54:30;99502.59;;;14.22;75.03
81155;BME280;70631;50.436;7.826;2023-09-07T03:56:56;99506.44;;;14.20;75.00
81155;BME280;70631;50.436;7.826;2023-09-07T03:59:22;99509.44;;;14.17;74.89
81155;BME280;70631;50.436;7.826;2023-09-07T04:01:47;99509.59;;;14.15;75.18
81155;BME280;70631;50.436;7.826;2023-09-07T04:04:12;99508.06;;;14.13;74.91
81155;BME280;70631;50.436;7.826;2023-09-07T04:06:37;99510.06;;;14.11;74.84
81155;BME280;70631;50.436;7.826;2023-09-07T04:09:03;99512.03;;;14.08;75.09
81155;BME280;70631;50.436;7.826;2023-09-07T04:11:28;99515.03;;;14.05;75.38
81155;BME280;70631;50.436;7.826;2023-09-07T04:13:53;99510.69;;;14.04;75.32
81155;BME280;70631;50.436;7.826;2023-09-07T04:16:18;99512.69;;;14.02;75.25
81155;BME280;70631;50.436;7.826;2023-09-07T04:18:44;99508.31;;;14.01;75.79
81155;BME280;70631;50.436;7.826;2023-09-07T04:21:09;99495.91;;;14.00;75.54
81155;BME280;70631;50.436;7.826;2023-09-07T04:23:35;99507.63;;;13.99;75.85
81155;BME280;70631;50.436;7.826;2023-09-07T04:26:06;99510.94;;;13.93;75.68
81155;BME280;70631;50.436;7.826;2023-09-07T04:28:31;99511.78;;;13.94;75.48
81155;BME280;70631;50.436;7.826;2023-09-07T04:30:57;99520.66;;;13.94;75.99
81155;BME280;70631;50.436;7.826;2023-09-07T04:33:22;99519.16;;;13.92;76.19
81155;BME280;70631;50.436;7.826;2023-09-07T04:35:47;99515.63;;;13.91;75.68
81155;BME280;70631;50.436;7.826;2023-09-07T04:38:12;99522.16;;;13.89;75.86
81155;BME280;70631;50.436;7.826;2023-09-07T04:40:37;99513.28;;;13.88;75.75
81155;BME280;70631;50.436;7.826;2023-09-07T04:43:03;99520.59;;;13.86;75.67
81155;BME280;70631;50.436;7.826;2023-09-07T04:45:28;99518.75;;;13.87;75.85
81155;BME280;70631;50.436;7.826;2023-09-07T04:47:53;99521.59;;;13.85;76.25
81155;BME280;70631;50.436;7.826;2023-09-07T04:50:18;99520.06;;;13.83;75.72
81155;BME280;70631;50.436;7.826;2023-09-07T04:52:44;99516.56;;;13.82;75.86
81155;BME280;70631;50.436;7.826;2023-09-07T04:55:09;99516.56;;;13.82;76.04
81155;BME280;70631;50.436;7.826;2023-09-07T04:57:36;99517.22;;;13.84;75.97
81155;BME280;70631;50.436;7.826;2023-09-07T05:00:01;99518.91;;;13.85;76.23
81155;BME280;70631;50.436;7.826;2023-09-07T05:02:28;99524.28;;;13.85;75.69
81155;BME280;70631;50.436;7.826;2023-09-07T05:04:53;99520.59;;;13.86;76.18
81155;BME280;70631;50.436;7.826;2023-09-07T05:07:19;99524.13;;;13.87;76.23
81155;BME280;70631;50.436;7.826;2023-09-07T05:09:44;99521.31;;;13.88;75.79
81155;BME280;70631;50.436;7.826;2023-09-07T05:12:09;99529.19;;;13.90;76.25
81155;BME280;70631;50.436;7.826;2023-09-07T05:14:35;99532.38;;;13.93;75.92
81155;BME280;70631;50.436;7.826;2023-09-07T05:17:01;99528.53;;;13.96;76.00
81155;BME280;70631;50.436;7.826;2023-09-07T05:19:27;99532.75;;;13.98;75.71
81155;BME280;70631;50.436;7.826;2023-09-07T05:21:52;99533.44;;;14.00;76.00
81155;BME280;70631;50.436;7.826;2023-09-07T05:24:17;99535.63;;;14.05;76.03
81155;BME280;70631;50.436;7.826;2023-09-07T05:26:43;99534.47;;;14.07;75.93
81155;BME280;70631;50.436;7.826;2023-09-07T05:29:09;99536.88;;;14.11;75.89
81155;BME280;70631;50.436;7.826;2023-09-07T05:31:35;99530.19;;;14.15;75.70
81155;BME280;70631;50.436;7.826;2023-09-07T05:34:00;99534.22;;;14.19;75.34
81155;BME280;70631;50.436;7.826;2023-09-07T05:36:26;99537.59;;;14.21;75.13
81155;BME280;70631;50.436;7.826;2023-09-07T05:38:52;99535.59;;;14.23;75.68
81155;BME280;70631;50.436;7.826;2023-09-07T05:41:17;99529.91;;;14.26;75.25
81155;BME280;70631;50.436;7.826;2023-09-07T05:43:42;99544.81;;;14.28;75.29
81155;BME280;70631;50.436;7.826;2023-09-07T05:46:08;99540.00;;;14.32;75.25
81155;BME280;70631;50.436;7.826;2023-09-07T05:48:33;99544.22;;;14.34;75.12
81155;BME280;70631;50.436;7.826;2023-09-07T05:50:58;99547.09;;;14.41;75.32
81155;BME280;70631;50.436;7.826;2023-09-07T05:53:23;99545.63;;;14.47;75.15
81155;BME280;70631;50.436;7.826;2023-09-07T05:55:52;99549.38;;;14.54;74.96
81155;BME280;70631;50.436;7.826;2023-09-07T05:58:17;99554.78;;;14.62;75.39
81155;BME280;70631;50.436;7.826;2023-09-07T06:00:42;99551.94;;;14.72;75.29
81155;BME280;70631;50.436;7.826;2023-09-07T06:03:08;99549.00;;;14.83;75.03
81155;BME280;70631;50.436;7.826;2023-09-07T06:05:35;99555.72;;;14.95;75.00
81155;BME280;70631;50.436;7.826;2023-09-07T06:08:05;99552.75;;;15.06;74.61
81155;BME280;70631;50.436;7.826;2023-09-07T06:10:31;99549.63;;;15.19;74.79
81155;BME280;70631;50.436;7.826;2023-09-07T06:12:56;99552.81;;;15.31;74.45
81155;BME280;70631;50.436;7.826;2023-09-07T06:15:22;99552.34;;;15.43;74.16
81155;BME280;70631;50.436;7.826;2023-09-07T06:17:47;99555.06;;;15.59;74.20
81155;BME280;70631;50.436;7.826;2023-09-07T06:20:13;99546.81;;;16.02;73.09
81155;BME280;70631;50.436;7.826;2023-09-07T06:22:38;99546.63;;;19.17;67.27
81155;BME280;70631;50.436;7.826;2023-09-07T06:25:03;99549.44;;;22.00;61.54
81155;BME280;70631;50.436;7.826;2023-09-07T06:27:29;99551.00;;;24.33;55.54
81155;BME280;70631;50.436;7.826;2023-09-07T06:29:54;99548.03;;;26.28;50.43
81155;BME280;70631;50.436;7.826;2023-09-07T06:32:20;99543.00;;;27.92;46.88
81155;BME280;70631;50.436;7.826;2023-09-07T06:34:45;99559.06;;;29.33;43.21
81155;BME280;70631;50.436;7.826;2023-09-07T06:37:11;99550.28;;;30.49;40.54
81155;BME280;70631;50.436;7.826;2023-09-07T06:39:36;99549.44;;;31.53;38.59
81155;BME280;70631;50.436;7.826;2023-09-07T06:42:02;99556.41;;;32.47;36.28
81155;BME280;70631;50.436;7.826;2023-09-07T06:44:29;99556.72;;;33.30;34.91
81155;BME280;70631;50.436;7.826;2023-09-07T06:46:54;99562.38;;;34.09;33.67
81155;BME280;70631;50.436;7.826;2023-09-07T06:49:19;99550.59;;;34.85;32.32
81155;BME280;70631;50.436;7.826;2023-09-07T06:51:44;99547.00;;;35.51;30.33
81155;BME280;70631;50.436;7.826;2023-09-07T06:54:10;99557.47;;;36.10;29.67
81155;BME280;70631;50.436;7.826;2023-09-07T06:56:35;99550.66;;;36.68;28.61
81155;BME280;70631;50.436;7.826;2023-09-07T06:59:00;99550.25;;;37.29;28.13
81155;BME280;70631;50.436;7.826;2023-09-07T07:01:26;99554.88;;;37.84;26.79
81155;BME280;70631;50.436;7.826;2023-09-07T07:03:51;99559.47;;;38.25;26.43
81155;BME280;70631;50.436;7.826;2023-09-07T07:06:18;99562.75;;;38.58;25.80
81155;BME280;70631;50.436;7.826;2023-09-07T07:08:43;99548.19;;;38.92;24.97
81155;BME280;70631;50.436;7.826;2023-09-07T07:11:08;99559.97;;;39.28;24.71
81155;BME280;70631;50.436;7.826;2023-09-07T07:13:33;99563.66;;;39.55;24.09
81155;BME280;70631;50.436;7.826;2023-09-07T07:15:59;99561.03;;;39.84;24.24
81155;BME280;70631;50.436;7.826;2023-09-07T07:18:24;99567.28;;;40.16;23.40
81155;BME280;70631;50.436;7.826;2023-09-07T07:20:49;99568.56;;;40.44;23.63
81155;BME280;70631;50.436;7.826;2023-09-07T07:23:16;99568.13;;;40.72;23.15
81155;BME280;70631;50.436;7.826;2023-09-07T07:25:41;99571.72;;;40.89;22.98
81155;BME280;70631;50.436;7.826;2023-09-07T07:28:07;99571.28;;;41.08;22.41
81155;BME280;70631;50.436;7.826;2023-09-07T07:30:33;99574.16;;;41.20;22.98
81155;BME280;70631;50.436;7.826;2023-09-07T07:32:59;99562.84;;;41.26;22.56
81155;BME280;70631;50.436;7.826;2023-09-07T07:35:24;99565.50;;;41.43;22.74
81155;BME280;70631;50.436;7.826;2023-09-07T07:37:50;99565.84;;;41.62;21.60
81155;BME280;70631;50.436;7.826;2023-09-07T07:40:16;99564.47;;;41.77;21.73
81155;BME280;70631;50.436;7.826;2023-09-07T07:42:43;99568.16;;;41.90;21.89
81155;BME280;70631;50.436;7.826;2023-09-07T07:45:08;99569.56;;;41.96;22.15
81155;BME280;70631;50.436;7.826;2023-09-07T07:47:34;99561.22;;;42.08;21.79
81155;BME280;70631;50.436;7.826;2023-09-07T07:49:59;99562.69;;;42.26;21.58
81155;BME280;70631;50.436;7.826;2023-09-07T07:52:24;99561.34;;;42.32;21.94
81155;BME280;70631;50.436;7.826;2023-09-07T07:54:50;99560.88;;;42.42;21.64
81155;BME280;70631;50.436;7.826;2023-09-07T07:57:15;99564.63;;;42.47;20.95
81155;BME280;70631;50.436;7.826;2023-09-07T07:59:40;99566.09;;;42.65;21.32
81155;BME280;70631;50.436;7.826;2023-09-07T08:02:06;99556.56;;;42.90;21.14
81155;BME280;70631;50.436;7.826;2023-09-07T08:04:32;99557.75;;;43.02;20.29
81155;BME280;70631;50.436;7.826;2023-09-07T08:06:57;99556.41;;;42.87;20.76
81155;BME280;70631;50.436;7.826;2023-09-07T08:09:28;99555.13;;;42.84;20.92
81155;BME280;70631;50.436;7.826;2023-09-07T08:11:54;99557.25;;;42.87;20.41
81155;BME280;70631;50.436;7.826;2023-09-07T08:14:21;99555.59;;;42.86;20.46
81155;BME280;70631;50.436;7.826;2023-09-07T08:16:47;99559.56;;;42.85;20.34
81155;BME280;70631;50.436;7.826;2023-09-07T08:19:12;99557.91;;;42.72;20.73
81155;BME280;70631;50.436;7.826;2023-09-07T08:21:38;99550.47;;;42.76;20.36
81155;BME280;70631;50.436;7.826;2023-09-07T08:24:03;99552.53;;;42.67;20.79
81155;BME280;70631;50.436;7.826;2023-09-07T08:26:28;99549.03;;;42.25;20.72
81155;BME280;70631;50.436;7.826;2023-09-07T08:28:54;99547.09;;;41.84;21.04
81155;BME280;70631;50.436;7.826;2023-09-07T08:31:19;99543.75;;;41.28;21.78
81155;BME280;70631;50.436;7.826;2023-09-07T08:33:48;99550.94;;;40.99;21.79
81155;BME280;70631;50.436;7.826;2023-09-07T08:36:15;99542.75;;;40.94;21.68
81155;BME280;70631;50.436;7.826;2023-09-07T08:38:42;99545.44;;;40.82;21.60
81155;BME280;70631;50.436;7.826;2023-09-07T08:41:08;99557.00;;;40.54;22.44
81155;BME280;70631;50.436;7.826;2023-09-07T08:43:35;99547.56;;;40.38;22.80
81155;BME280;70631;50.436;7.826;2023-09-07T08:46:13;99541.31;;;40.24;22.63
81155;BME280;70631;50.436;7.826;2023-09-07T08:48:39;99554.44;;;40.23;22.63
81155;BME280;70631;50.436;7.826;2023-09-07T08:51:06;99544.13;;;40.15;23.17
81155;BME280;70631;50.436;7.826;2023-09-07T08:53:32;99542.94;;;40.42;22.99
81155;BME280;70631;50.436;7.826;2023-09-07T08:55:58;99539.66;;;40.40;22.62
81155;BME280;70631;50.436;7.826;2023-09-07T08:58:24;99538.13;;;40.51;23.29
81155;BME280;70631;50.436;7.826;2023-09-07T09:00:50;99539.34;;;40.80;22.81
81155;BME280;70631;50.436;7.826;2023-09-07T09:03:17;99536.09;;;41.07;23.01
81155;BME280;70631;50.436;7.826;2023-09-07T09:05:43;99539.91;;;41.32;22.19
81155;BME280;70631;50.436;7.826;2023-09-07T09:08:09;99542.84;;;41.36;22.00
81155;BME280;70631;50.436;7.826;2023-09-07T09:10:38;99532.25;;;40.91;22.43
81155;BME280;70631;50.436;7.826;2023-09-07T09:13:04;99537.06;;;40.82;22.26
81155;BME280;70631;50.436;7.826;2023-09-07T09:15:29;99536.72;;;40.75;22.90
81155;BME280;70631;50.436;7.826;2023-09-07T09:17:55;99538.47;;;40.50;22.70
81155;BME280;70631;50.436;7.826;2023-09-07T09:20:24;99531.50;;;39.92;23.73
81155;BME280;70631;50.436;7.826;2023-09-07T09:22:54;99536.75;;;39.93;23.96
81155;BME280;70631;50.436;7.826;2023-09-07T09:25:21;99532.13;;;39.80;23.70
81155;BME280;70631;50.436;7.826;2023-09-07T09:27:47;99530.44;;;39.45;24.39
81155;BME280;70631;50.436;7.826;2023-09-07T09:30:13;99526.66;;;39.23;24.25
81155;BME280;70631;50.436;7.826;2023-09-07T09:32:41;99523.06;;;39.31;24.25
81155;BME280;70631;50.436;7.826;2023-09-07T09:35:08;99523.06;;;39.40;24.24
81155;BME280;70631;50.436;7.826;2023-09-07T09:37:34;99524.72;;;39.50;24.39
81155;BME280;70631;50.436;7.826;2023-09-07T09:40:00;99514.41;;;39.59;24.16
81155;BME280;70631;50.436;7.826;2023-09-07T09:42:27;99518.00;;;39.68;24.05
81155;BME280;70631;50.436;7.826;2023-09-07T09:44:52;99508.69;;;39.72;23.81
81155;BME280;70631;50.436;7.826;2023-09-07T09:47:21;99513.72;;;39.45;23.85
81155;BME280;70631;50.436;7.826;2023-09-07T09:49:47;99512.94;;;38.96;24.21
81155;BME280;70631;50.436;7.826;2023-09-07T09:52:15;99509.94;;;38.75;24.91
81155;BME280;70631;50.436;7.826;2023-09-07T09:54:40;99502.28;;;38.58;24.97
81155;BME280;70631;50.436;7.826;2023-09-07T09:57:06;99508.13;;;38.39;25.37
81155;BME280;70631;50.436;7.826;2023-09-07T09:59:32;99506.16;;;38.40;25.38
81155;BME280;70631;50.436;7.826;2023-09-07T10:01:57;99501.84;;;38.34;25.38
81155;BME280;70631;50.436;7.826;2023-09-07T10:04:23;99504.22;;;38.49;25.24
81155;BME280;70631;50.436;7.826;2023-09-07T10:06:59;99487.63;;;38.35;25.35
81155;BME280;70631;50.436;7.826;2023-09-07T10:09:30;99497.03;;;38.48;25.20
81155;BME280;70631;50.436;7.826;2023-09-07T10:11:58;99492.28;;;38.48;25.06
81155;BME280;70631;50.436;7.826;2023-09-07T10:14:25;99485.16;;;38.65;25.51
81155;BME280;70631;50.436;7.826;2023-09-07T10:16:53;99491.16;;;38.98;25.06
81155;BME280;70631;50.436;7.826;2023-09-07T10:19:25;99486.47;;;39.07;25.11
81155;BME280;70631;50.436;7.826;2023-09-07T10:21:53;99485.41;;;38.86;24.56
81155;BME280;70631;50.436;7.826;2023-09-07T10:24:28;99483.88;;;38.71;25.05
81155;BME280;70631;50.436;7.826;2023-09-07T10:27:07;99486.59;;;38.62;25.63
81155;BME280;70631;50.436;7.826;2023-09-07T10:29:44;99477.56;;;38.57;25.28
81155;BME280;70631;50.436;7.826;2023-09-07T10:32:10;99483.25;;;38.43;25.44
81155;BME280;70631;50.436;7.826;2023-09-07T10:34:40;99485.16;;;38.34;25.38
81155;BME280;70631;50.436;7.826;2023-09-07T10:37:09;99476.41;;;38.18;24.98
81155;BME280;70631;50.436;7.826;2023-09-07T10:39:39;99471.53;;;38.01;25.34
81155;BME280;70631;50.436;7.826;2023-09-07T10:42:04;99472.78;;;38.17;25.45
81155;BME280;70631;50.436;7.826;2023-09-07T10:44:29;99464.91;;;38.42;25.45
81155;BME280;70631;50.436;7.826;2023-09-07T10:46:56;99465.56;;;38.47;25.27
81155;BME280;70631;50.436;7.826;2023-09-07T10:49:22;99459.44;;;38.37;25.62
81155;BME280;70631;50.436;7.826;2023-09-07T10:51:48;99461.97;;;38.47;25.81
81155;BME280;70631;50.436;7.826;2023-09-07T10:54:16;99463.22;;;38.63;25.86
81155;BME280;70631;50.436;7.826;2023-09-07T10:56:45;99454.25;;;38.84;25.87
81155;BME280;70631;50.436;7.826;2023-09-07T10:59:13;99458.56;;;39.24;24.73
81155;BME280;70631;50.436;7.826;2023-09-07T11:01:38;99455.66;;;39.29;24.78
81155;BME280;70631;50.436;7.826;2023-09-07T11:04:04;99450.72;;;39.09;25.02
81155;BME280;70631;50.436;7.826;2023-09-07T11:06:30;99449.34;;;38.98;24.92
81155;BME280;70631;50.436;7.826;2023-09-07T11:08:59;99456.66;;;38.76;25.04
81155;BME280;70631;50.436;7.826;2023-09-07T11:11:24;99457.03;;;38.44;25.51
81155;BME280;70631;50.436;7.826;2023-09-07T11:13:51;99446.69;;;38.13;25.69
81155;BME280;70631;50.436;7.826;2023-09-07T11:16:16;99448.06;;;37.93;26.14
81155;BME280;70631;50.436;7.826;2023-09-07T11:18:42;99455.47;;;37.98;25.93
81155;BME280;70631;50.436;7.826;2023-09-07T11:21:07;99444.22;;;37.81;26.07
81155;BME280;70631;50.436;7.826;2023-09-07T11:23:33;99441.16;;;37.69;26.38
81155;BME280;70631;50.436;7.826;2023-09-07T11:26:04;99445.22;;;37.40;26.54
81155;BME280;70631;50.436;7.826;2023-09-07T11:28:30;99441.75;;;37.21;26.89
81155;BME280;70631;50.436;7.826;2023-09-07T11:30:55;99438.78;;;37.17;27.03
81155;BME280;70631;50.436;7.826;2023-09-07T11:33:24;99437.66;;;37.05;27.17
81155;BME280;70631;50.436;7.826;2023-09-07T11:35:51;99433.03;;;37.00;27.56
81155;BME280;70631;50.436;7.826;2023-09-07T11:38:17;99428.84;;;37.25;27.55
81155;BME280;70631;50.436;7.826;2023-09-07T11:40:43;99431.56;;;37.16;27.14
81155;BME280;70631;50.436;7.826;2023-09-07T11:43:14;99427.00;;;36.57;27.92
81155;BME280;70631;50.436;7.826;2023-09-07T11:45:40;99425.94;;;36.25;28.66
81155;BME280;70631;50.436;7.826;2023-09-07T11:48:06;99430.13;;;35.76;28.90
81155;BME280;70631;50.436;7.826;2023-09-07T11:50:34;99422.84;;;35.10;29.87
81155;BME280;70631;50.436;7.826;2023-09-07T11:53:00;99420.22;;;34.57;31.32
81155;BME280;70631;50.436;7.826;2023-09-07T11:55:25;99422.56;;;34.45;31.06
81155;BME280;70631;50.436;7.826;2023-09-07T11:57:50;99415.06;;;34.22;31.54
81155;BME280;70631;50.436;7.826;2023-09-07T12:00:17;99418.88;;;34.02;31.71
81155;BME280;70631;50.436;7.826;2023-09-07T12:02:42;99416.56;;;33.85;32.22
81155;BME280;70631;50.436;7.826;2023-09-07T12:05:08;99410.59;;;33.68;32.40
81155;BME280;70631;50.436;7.826;2023-09-07T12:07:34;99413.69;;;33.61;32.77
81155;BME280;70631;50.436;7.826;2023-09-07T12:10:00;99408.97;;;33.62;32.85
81155;BME280;70631;50.436;7.826;2023-09-07T12:12:26;99400.06;;;33.70;33.12
81155;BME280;70631;50.436;7.826;2023-09-07T12:14:51;99401.63;;;33.81;32.85
81155;BME280;70631;50.436;7.826;2023-09-07T12:17:16;99395.38;;;33.70;32.22
81155;BME280;70631;50.436;7.826;2023-09-07T12:19:42;99403.91;;;33.45;32.02
81155;BME280;70631;50.436;7.826;2023-09-07T12:22:07;99403.25;;;33.14;32.90
81155;BME280;70631;50.436;7.826;2023-09-07T12:24:33;99392.59;;;32.97;33.10
81155;BME280;70631;50.436;7.826;2023-09-07T12:26:58;99412.72;;;33.03;33.06
81155;BME280;70631;50.436;7.826;2023-09-07T12:29:25;99389.59;;;32.89;33.02
81155;BME280;70631;50.436;7.826;2023-09-07T12:31:50;99396.84;;;32.79;32.57
81155;BME280;70631;50.436;7.826;2023-09-07T12:34:15;99392.47;;;32.63;33.58
81155;BME280;70631;50.436;7.826;2023-09-07T12:36:40;99388.97;;;32.42;33.97
81155;BME280;70631;50.436;7.826;2023-09-07T12:39:06;99391.78;;;32.32;34.33
81155;BME280;70631;50.436;7.826;2023-09-07T12:41:32;99391.47;;;32.39;34.61
81155;BME280;70631;50.436;7.826;2023-09-07T12:43:57;99384.22;;;32.53;33.68
81155;BME280;70631;50.436;7.826;2023-09-07T12:46:22;99387.00;;;32.53;34.24
81155;BME280;70631;50.436;7.826;2023-09-07T12:48:48;99385.34;;;32.52;33.09
81155;BME280;70631;50.436;7.826;2023-09-07T12:51:13;99385.34;;;32.52;33.34
81155;BME280;70631;50.436;7.826;2023-09-07T12:53:38;99382.88;;;32.56;33.69